Time;durP1;ratioP1;P1;durP2;ratioP2;P2;SDS_P1;SDS_P2;PMS_P1;PMS_P2;Temp;Humidity;BMP_temperature;BMP_pressure;BME280_temperature;BME280_humidity;BME280_pressure;Samples;Min_cycle;Max_cycle;Signal;HPM_P1;HPM_P2
2022/06/25 00:01:05;;;;;;;4.10;2.90;;;;;;;23.41;48.12;100355.03;5012165;28;20105;-67
2022/06/25 00:03:30;;;;;;;3.35;2.85;;;;;;;23.34;48.12;100351.13;5013321;28;20362;-67
2022/06/25 00:05:56;;;;;;;4.78;2.58;;;;;;;23.29;48.40;100356.81;5012356;28;20487;-65
2022/06/25 00:08:22;;;;;;;4.15;2.63;;;;;;;23.23;48.39;100354.59;5017655;28;20058;-67
2022/06/25 00:10:47;;;;;;;3.30;2.55;;;;;;;23.20;48.42;100354.81;5014968;28;20524;-65
2022/06/25 00:13:13;;;;;;;3.78;2.63;;;;;;;23.16;48.48;100350.66;5015557;28;20038;-67
2022/06/25 00:15:38;;;;;;;3.63;2.67;;;;;;;23.13;48.72;100358.94;5033887;28;20133;-68
2022/06/25 00:18:03;;;;;;;3.22;2.42;;;;;;;23.10;48.64;100356.50;5031978;28;20037;-67
2022/06/25 00:20:29;;;;;;;4.28;3.10;;;;;;;23.02;49.18;100364.22;4999316;28;20033;-67
2022/06/25 00:22:54;;;;;;;4.38;2.88;;;;;;;22.96;49.09;100357.50;5032434;28;20108;-67
2022/06/25 00:25:20;;;;;;;3.58;2.63;;;;;;;22.87;49.66;100360.84;5024961;28;20064;-68
2022/06/25 00:27:45;;;;;;;4.32;2.78;;;;;;;22.78;49.64;100357.00;5016045;28;20046;-68
2022/06/25 00:30:11;;;;;;;3.63;2.67;;;;;;;22.80;49.54;100357.72;5032716;28;20095;-67
2022/06/25 00:32:36;;;;;;;3.60;2.60;;;;;;;22.73;50.11;100364.50;5031879;28;20025;-67
2022/06/25 00:35:03;;;;;;;6.93;2.88;;;;;;;22.68;50.16;100361.31;5033771;28;20103;-67
2022/06/25 00:37:28;;;;;;;6.47;3.05;;;;;;;22.70;50.19;100367.41;5016139;28;20033;-68
2022/06/25 00:39:54;;;;;;;3.72;2.90;;;;;;;22.67;50.22;100359.59;5032354;28;20051;-67
2022/06/25 00:42:20;;;;;;;3.67;2.75;;;;;;;22.64;50.19;100367.84;5030490;28;20045;-67
2022/06/25 00:44:45;;;;;;;4.40;2.97;;;;;;;22.62;50.35;100357.25;5032357;28;20473;-67
2022/06/25 00:47:12;;;;;;;4.30;2.92;;;;;;;22.60;50.81;100355.66;5032825;28;20040;-68
2022/06/25 00:49:39;;;;;;;3.92;2.65;;;;;;;22.54;50.80;100366.78;5033571;28;20037;-68
2022/06/25 00:52:16;;;;;;;4.53;2.75;;;;;;;22.46;51.78;100359.34;5014595;28;20133;-67
2022/06/25 00:54:49;;;;;;;3.40;2.80;;;;;;;22.40;51.67;100367.78;5027633;28;20082;-68
2022/06/25 00:57:20;;;;;;;4.15;2.70;;;;;;;22.34;51.98;100369.09;5032824;28;20094;-67
2022/06/25 00:59:48;;;;;;;4.43;2.90;;;;;;;22.29;52.16;100365.88;5045299;28;20040;-67
2022/06/25 01:02:14;;;;;;;4.20;2.90;;;;;;;22.26;52.43;100362.53;5028519;28;20472;-67
2022/06/25 01:04:39;;;;;;;4.72;3.00;;;;;;;22.22;52.40;100361.94;5012188;28;20120;-67
2022/06/25 01:07:06;;;;;;;3.63;3.25;;;;;;;22.16;52.84;100367.69;5015055;28;20485;-67
2022/06/25 01:09:33;;;;;;;5.65;2.90;;;;;;;22.12;53.17;100361.66;5014427;28;20049;-68
2022/06/25 01:11:59;;;;;;;3.85;2.83;;;;;;;22.06;53.33;100361.22;5032063;28;20034;-67
2022/06/25 01:14:24;;;;;;;3.90;3.00;;;;;;;22.38;52.55;100367.91;5015125;28;20404;-68
2022/06/25 01:16:49;;;;;;;3.88;3.30;;;;;;;22.08;53.32;100370.03;5015916;28;20029;-68
2022/06/25 01:19:15;;;;;;;3.80;2.60;;;;;;;21.93;53.79;100366.59;5013535;28;20041;-67
2022/06/25 01:21:42;;;;;;;4.70;3.00;;;;;;;21.85;54.14;100356.41;5015152;28;20053;-67
2022/06/25 01:24:08;;;;;;;4.82;2.45;;;;;;;21.86;54.23;100363.50;5032064;28;20064;-67
2022/06/25 01:26:40;;;;;;;3.20;2.33;;;;;;;21.89;54.00;100365.09;5031875;28;20501;-67
2022/06/25 01:29:07;;;;;;;4.00;2.65;;;;;;;21.86;53.82;100365.28;5030370;28;20034;-67
2022/06/25 01:31:32;;;;;;;3.70;2.88;;;;;;;21.83;53.75;100361.03;5014002;28;20037;-67
2022/06/25 01:33:59;;;;;;;6.07;2.40;;;;;;;21.80;53.84;100363.91;5032209;28;20044;-67
2022/06/25 01:36:25;;;;;;;3.17;2.63;;;;;;;21.83;53.79;100366.38;5032487;28;20079;-68
2022/06/25 01:38:51;;;;;;;4.22;3.15;;;;;;;21.79;53.62;100370.22;5047393;28;20110;-68
2022/06/25 01:41:17;;;;;;;4.38;3.10;;;;;;;21.74;53.77;100374.16;5014585;28;20046;-67
2022/06/25 01:43:42;;;;;;;3.00;2.35;;;;;;;21.80;53.60;100371.94;5013270;28;20029;-68
2022/06/25 01:46:08;;;;;;;3.05;2.38;;;;;;;21.79;53.38;100377.41;5029707;28;20037;-68
2022/06/25 01:48:35;;;;;;;5.10;3.25;;;;;;;21.70;53.54;100373.50;5032494;28;20481;-68
2022/06/25 01:51:01;;;;;;;3.50;2.67;;;;;;;21.76;53.49;100370.44;5031256;28;20061;-67
2022/06/25 01:53:27;;;;;;;4.07;2.83;;;;;;;21.74;53.54;100374.16;5012578;28;20091;-67
2022/06/25 01:55:53;;;;;;;4.22;2.67;;;;;;;21.76;53.54;100375.78;5032062;28;20033;-67
2022/06/25 01:58:19;;;;;;;3.92;2.92;;;;;;;21.71;53.62;100375.25;4981209;28;20049;-68
2022/06/25 02:00:44;;;;;;;3.72;2.88;;;;;;;21.71;53.52;100372.56;5032661;28;20092;-68
2022/06/25 02:03:10;;;;;;;6.15;3.55;;;;;;;21.74;53.43;100369.66;5031557;28;20037;-66
2022/06/25 02:08:19;;;;;;;3.47;3.00;;;;;;;21.77;53.50;100381.97;5030803;28;20056;-68
2022/06/25 02:10:46;;;;;;;3.80;2.80;;;;;;;21.73;53.50;100373.31;5028464;28;20042;-67
2022/06/25 02:13:12;;;;;;;3.45;2.70;;;;;;;21.70;53.72;100376.19;5034823;28;20045;-67
2022/06/25 02:15:38;;;;;;;3.08;2.78;;;;;;;21.73;53.58;100381.31;5035659;28;20040;-68
2022/06/25 02:18:03;;;;;;;3.88;3.25;;;;;;;21.63;53.85;100377.56;5001560;28;20043;-67
2022/06/25 02:20:29;;;;;;;5.00;3.20;;;;;;;21.64;53.95;100369.44;5036128;28;20408;-67
2022/06/25 02:22:54;;;;;;;6.20;3.35;;;;;;;21.60;53.85;100377.78;5015406;28;20404;-66
2022/06/25 02:25:20;;;;;;;6.22;4.50;;;;;;;21.69;53.87;100377.16;5035211;28;20390;-68
2022/06/25 02:27:45;;;;;;;7.68;6.18;;;;;;;21.68;53.70;100378.13;5018028;28;20033;-68
2022/06/25 02:30:11;;;;;;;14.00;10.18;;;;;;;21.74;53.69;100374.16;5034499;28;20045;-68
2022/06/25 02:32:36;;;;;;;18.30;10.85;;;;;;;21.75;53.50;100376.75;5034245;28;20037;-68
2022/06/25 02:35:02;;;;;;;16.67;10.25;;;;;;;21.80;53.34;100382.63;5034943;28;20025;-67
2022/06/25 02:37:28;;;;;;;10.40;6.90;;;;;;;21.71;53.49;100375.25;5034917;28;20048;-68
2022/06/25 02:39:53;;;;;;;7.72;4.70;;;;;;;21.68;53.57;100378.13;4999280;28;20056;-68
2022/06/25 02:42:19;;;;;;;7.18;3.90;;;;;;;21.62;53.78;100378.50;5035186;28;20079;-68
2022/06/25 02:44:44;;;;;;;6.03;3.65;;;;;;;21.60;53.66;100375.97;5035901;28;20041;-68
2022/06/25 02:47:10;;;;;;;4.70;3.13;;;;;;;21.60;53.52;100383.97;5034261;28;20124;-67
2022/06/25 02:49:35;;;;;;;5.55;3.65;;;;;;;21.51;53.59;100376.59;5034799;28;20033;-68
2022/06/25 02:52:01;;;;;;;4.55;3.40;;;;;;;21.52;53.45;100380.13;5035500;28;20064;-69
2022/06/25 02:54:26;;;;;;;3.80;3.33;;;;;;;21.52;53.52;100375.63;5046749;28;20032;-67
2022/06/25 02:59:40;;;;;;;5.82;3.88;;;;;;;21.50;53.67;100385.53;5029212;28;20060;-67
2022/06/25 03:02:07;;;;;;;4.47;3.45;;;;;;;21.43;53.89;100388.75;5016761;28;20045;-68
2022/06/25 03:04:32;;;;;;;6.07;4.00;;;;;;;21.41;53.67;100375.47;5035088;28;20037;-68
2022/06/25 03:06:58;;;;;;;3.67;3.17;;;;;;;21.45;53.68;100381.47;5016367;28;20064;-68
2022/06/25 03:09:23;;;;;;;4.40;4.00;;;;;;;21.48;53.56;100382.13;5016730;28;20545;-68
2022/06/25 03:11:52;;;;;;;6.63;3.92;;;;;;;21.51;53.61;100387.28;5035003;28;20121;-67
2022/06/25 03:14:17;;;;;;;4.35;3.33;;;;;;;21.56;53.45;100387.81;5034011;28;20060;-68
2022/06/25 03:16:43;;;;;;;5.05;3.25;;;;;;;21.65;53.17;100387.19;5033819;28;20033;-67
2022/06/25 03:19:09;;;;;;;6.35;3.70;;;;;;;21.84;52.88;100388.63;5034033;28;20030;-68
2022/06/25 03:21:35;;;;;;;4.32;3.20;;;;;;;21.73;52.94;100380.47;5017117;28;20137;-68
2022/06/25 03:24:03;;;;;;;5.60;3.47;;;;;;;21.71;53.16;100393.09;5032159;28;20057;-66
2022/06/25 03:26:29;;;;;;;5.05;3.40;;;;;;;21.78;53.06;100391.69;5033453;28;20076;-68
2022/06/25 03:28:55;;;;;;;3.45;3.10;;;;;;;21.83;53.04;100395.78;5016027;28;20037;-68
2022/06/25 03:31:21;;;;;;;5.93;3.13;;;;;;;21.84;52.93;100394.81;5042608;28;20112;-67
2022/06/25 03:33:47;;;;;;;5.30;3.70;;;;;;;21.88;52.87;100390.97;5000816;28;20124;-68
2022/06/25 03:36:13;;;;;;;4.20;3.28;;;;;;;21.92;52.83;100396.13;5033720;28;20365;-67
2022/06/25 03:38:38;;;;;;;4.03;3.50;;;;;;;21.96;52.84;100398.47;5032124;28;20029;-68
2022/06/25 03:43:49;;;;;;;4.15;3.50;;;;;;;22.06;52.51;100394.22;5014738;28;20120;-70
2022/06/25 03:46:14;;;;;;;5.57;3.47;;;;;;;22.16;52.64;100399.81;5034249;28;20045;-68
2022/06/25 03:48:40;;;;;;;4.50;3.83;;;;;;;22.25;52.41;100404.50;5014455;28;20095;-67
2022/06/25 03:51:05;;;;;;;5.80;3.95;;;;;;;22.33;52.41;100402.16;5034318;28;20037;-67
2022/06/25 03:53:31;;;;;;;5.80;4.40;;;;;;;22.43;52.33;100404.19;5034095;28;20417;-67
2022/06/25 03:55:56;;;;;;;9.20;5.30;;;;;;;22.52;51.92;100400.88;5033822;28;20072;-68
2022/06/25 03:58:24;;;;;;;6.07;4.80;;;;;;;22.63;51.89;100411.66;5032408;28;20167;-67
2022/06/25 04:00:50;;;;;;;8.15;5.28;;;;;;;22.75;51.61;100408.13;5032443;28;20029;-66
2022/06/25 04:03:15;;;;;;;6.35;5.40;;;;;;;22.85;51.04;100408.28;5033490;28;20049;-67
2022/06/25 04:05:40;;;;;;;6.95;4.28;;;;;;;22.96;51.08;100404.88;5031835;28;20120;-68
2022/06/25 04:08:06;;;;;;;10.70;5.30;;;;;;;23.06;50.88;100411.25;5034053;28;20405;-68
2022/06/25 04:10:31;;;;;;;7.20;5.20;;;;;;;23.14;51.00;100411.56;5032158;28;20040;-68
2022/06/25 04:12:57;;;;;;;5.93;4.65;;;;;;;23.26;50.44;100421.41;5011904;28;20168;-68
2022/06/25 04:15:22;;;;;;;6.72;4.72;;;;;;;23.34;50.20;100410.09;5015745;28;20037;-68
2022/06/25 04:17:48;;;;;;;9.80;5.50;;;;;;;23.45;50.15;100414.66;5033161;28;20033;-68
2022/06/25 04:20:13;;;;;;;9.20;6.10;;;;;;;23.51;50.09;100419.56;5031163;28;20045;-67
2022/06/25 04:22:38;;;;;;;8.25;5.80;;;;;;;23.65;49.77;100424.72;5034244;28;20032;-68
2022/06/25 04:25:04;;;;;;;7.68;5.20;;;;;;;23.75;49.61;100427.63;5033290;28;20389;-68
2022/06/25 04:30:14;;;;;;;4.70;4.20;;;;;;;23.64;50.09;100430.22;5031423;28;20107;-68
2022/06/25 04:32:39;;;;;;;5.05;4.05;;;;;;;23.64;50.08;100439.13;5032306;28;20477;-68
2022/06/25 04:35:05;;;;;;;4.20;3.75;;;;;;;23.71;50.03;100435.03;5012786;28;20042;-68
2022/06/25 04:37:31;;;;;;;4.70;3.47;;;;;;;23.80;49.92;100438.84;5014918;28;20081;-67
2022/06/25 04:39:56;;;;;;;4.45;3.35;;;;;;;23.90;49.97;100438.97;5033225;28;20057;-68
2022/06/25 04:42:22;;;;;;;6.50;3.13;;;;;;;23.96;49.62;100441.22;5032890;28;20040;-67
2022/06/25 04:44:47;;;;;;;4.90;2.90;;;;;;;24.12;49.27;100441.75;5033625;28;20474;-68
2022/06/25 04:47:12;;;;;;;4.43;2.90;;;;;;;24.19;49.17;100442.97;5031248;28;20037;-67
2022/06/25 04:49:38;;;;;;;4.07;2.85;;;;;;;24.31;48.92;100443.84;5016046;28;20065;-68
2022/06/25 04:52:04;;;;;;;2.70;2.25;;;;;;;24.36;48.54;100447.03;5031692;28;20374;-67
2022/06/25 04:54:29;;;;;;;4.07;2.90;;;;;;;24.46;48.45;100447.22;5032613;28;20120;-68
2022/06/25 04:56:55;;;;;;;4.88;3.10;;;;;;;24.55;48.08;100441.09;5014597;28;20048;-68
2022/06/25 04:59:20;;;;;;;4.40;3.08;;;;;;;24.66;48.14;100449.19;5015290;28;20163;-67
2022/06/25 05:01:46;;;;;;;4.38;2.42;;;;;;;24.79;47.40;100451.72;5011743;28;20117;-68
2022/06/25 05:04:12;;;;;;;3.60;2.83;;;;;;;24.91;47.13;100447.22;5031831;28;20034;-66
2022/06/25 05:06:37;;;;;;;3.13;2.83;;;;;;;25.03;46.96;100443.53;5032016;28;20029;-68
2022/06/25 05:09:02;;;;;;;5.53;3.10;;;;;;;25.14;46.54;100457.00;5030598;28;20049;-68
2022/06/25 05:11:28;;;;;;;4.63;2.60;;;;;;;25.20;46.41;100451.09;5015440;28;20146;-68
2022/06/25 05:13:53;;;;;;;3.33;2.90;;;;;;;25.28;46.25;100458.53;5030692;28;20029;-69
2022/06/25 05:16:19;;;;;;;3.53;2.70;;;;;;;25.38;45.98;100466.72;4998668;28;20041;-68
2022/06/25 05:18:44;;;;;;;4.60;2.83;;;;;;;25.56;45.66;100459.81;5014617;28;20033;-68
2022/06/25 05:21:10;;;;;;;3.65;3.13;;;;;;;25.60;45.44;100457.72;5032545;28;20056;-68
2022/06/25 05:23:35;;;;;;;4.90;3.50;;;;;;;25.67;45.25;100465.16;5032821;28;20115;-69
2022/06/25 05:26:02;;;;;;;6.30;3.00;;;;;;;25.73;45.16;100475.41;5032010;28;20482;-68
2022/06/25 05:28:27;;;;;;;3.55;2.85;;;;;;;25.85;45.01;100464.59;5013855;28;20064;-68
2022/06/25 05:30:53;;;;;;;4.10;2.63;;;;;;;25.96;44.61;100462.72;5030864;28;20057;-68
2022/06/25 05:33:18;;;;;;;3.92;2.80;;;;;;;26.10;44.20;100466.94;5032785;28;20045;-68
2022/06/25 05:35:44;;;;;;;4.03;2.80;;;;;;;26.18;44.05;100466.28;5015055;28;20040;-68
2022/06/25 05:38:09;;;;;;;3.53;2.78;;;;;;;26.28;44.01;100473.44;5028779;28;20392;-68
2022/06/25 05:40:35;;;;;;;3.97;2.97;;;;;;;26.30;43.74;100467.94;5031827;28;20038;-68
2022/06/25 05:43:01;;;;;;;4.80;3.20;;;;;;;26.37;43.73;100470.94;5030055;28;20033;-67
2022/06/25 05:45:27;;;;;;;3.40;3.10;;;;;;;26.59;43.27;100464.56;5014257;28;20447;-68
2022/06/25 05:47:52;;;;;;;6.05;3.25;;;;;;;26.56;43.09;100470.22;5014018;28;20378;-68
2022/06/25 05:50:18;;;;;;;3.63;3.10;;;;;;;26.83;42.59;100464.25;5031848;28;20038;-69
2022/06/25 05:52:43;;;;;;;4.45;3.45;;;;;;;26.95;42.38;100471.25;5032402;28;20469;-68
2022/06/25 05:55:09;;;;;;;3.08;2.53;;;;;;;27.00;42.14;100469.84;5032138;28;20091;-69
2022/06/25 05:57:34;;;;;;;4.32;3.50;;;;;;;26.88;42.08;100465.53;5014656;28;20396;-69
2022/06/25 06:00:00;;;;;;;3.30;3.00;;;;;;;26.91;42.07;100469.81;5032257;28;20033;-67
2022/06/25 06:02:26;;;;;;;4.72;3.28;;;;;;;26.82;42.15;100473.34;5031909;28;20041;-69
2022/06/25 06:04:53;;;;;;;4.50;3.30;;;;;;;26.85;41.90;100467.66;5032472;28;20037;-69
2022/06/25 06:07:19;;;;;;;5.70;3.58;;;;;;;26.92;41.72;100476.91;5014507;28;20092;-68
2022/06/25 06:09:44;;;;;;;4.97;3.05;;;;;;;26.94;41.77;100469.56;5032589;28;20554;-68
2022/06/25 06:12:10;;;;;;;7.38;3.10;;;;;;;27.03;41.63;100479.50;5013655;28;20448;-68
2022/06/25 06:14:35;;;;;;;3.83;3.00;;;;;;;27.05;41.58;100468.56;5032168;28;20451;-68
2022/06/25 06:17:01;;;;;;;4.85;3.20;;;;;;;27.12;41.57;100473.31;5014386;28;20071;-67
2022/06/25 06:19:26;;;;;;;3.63;3.25;;;;;;;27.21;41.29;100466.25;5032232;28;20037;-68
2022/06/25 06:21:51;;;;;;;3.30;2.83;;;;;;;27.26;41.52;100480.19;4997856;28;20029;-67
2022/06/25 06:24:17;;;;;;;4.00;2.78;;;;;;;27.34;41.20;100476.78;5012607;28;20064;-68
2022/06/25 06:26:42;;;;;;;5.18;3.53;;;;;;;27.45;41.00;100473.97;5031881;28;20044;-69
2022/06/25 06:29:08;;;;;;;4.75;3.22;;;;;;;27.52;40.72;100475.09;5029979;28;20033;-68
2022/06/25 06:31:33;;;;;;;4.43;3.00;;;;;;;27.56;40.61;100483.78;5032211;28;20064;-69
2022/06/25 06:33:59;;;;;;;4.40;3.10;;;;;;;27.60;40.55;100477.97;5030965;28;20124;-69
2022/06/25 06:36:24;;;;;;;4.43;3.47;;;;;;;27.63;40.46;100483.06;5014677;28;20401;-68
2022/06/25 06:38:50;;;;;;;3.75;3.10;;;;;;;27.74;40.39;100479.44;5014286;28;20037;-70
2022/06/25 06:41:18;;;;;;;9.73;3.67;;;;;;;27.75;40.21;100495.47;5031601;28;20037;-67
2022/06/25 06:43:44;;;;;;;4.35;3.47;;;;;;;27.86;39.93;100485.56;5032219;28;20123;-68
2022/06/25 06:46:12;;;;;;;6.45;3.60;;;;;;;27.93;39.84;100494.78;5032375;28;20117;-69
2022/06/25 06:48:38;;;;;;;3.85;3.30;;;;;;;28.02;39.80;100483.13;5029254;28;20053;-69
2022/06/25 06:51:03;;;;;;;4.57;3.03;;;;;;;28.08;39.54;100485.22;4997911;28;20057;-69
2022/06/25 06:53:29;;;;;;;3.53;2.90;;;;;;;28.25;39.20;100489.06;5013171;28;20026;-69
2022/06/25 06:55:55;;;;;;;4.75;3.00;;;;;;;28.30;39.11;100491.34;5013054;28;20496;-68
2022/06/25 06:58:20;;;;;;;4.68;3.30;;;;;;;28.34;39.15;100498.16;5030786;28;20397;-69
2022/06/25 07:00:46;;;;;;;3.58;2.97;;;;;;;28.48;38.67;100489.59;5013109;28;20036;-68
2022/06/25 07:03:11;;;;;;;4.97;3.42;;;;;;;28.46;38.76;100491.63;5014372;28;20500;-67
2022/06/25 07:05:37;;;;;;;3.15;2.85;;;;;;;28.61;38.37;100489.31;5031492;28;20128;-69
2022/06/25 07:08:02;;;;;;;3.22;2.92;;;;;;;28.62;38.71;100491.84;5034301;28;20034;-70
2022/06/25 07:10:28;;;;;;;6.53;2.80;;;;;;;28.69;38.39;100492.13;5032785;28;20048;-68
2022/06/25 07:12:53;;;;;;;4.03;2.90;;;;;;;28.71;38.32;100493.66;5031931;28;20045;-69
2022/06/25 07:15:19;;;;;;;3.60;3.10;;;;;;;28.78;37.84;100490.38;5025779;28;20057;-68
2022/06/25 07:17:45;;;;;;;4.72;3.20;;;;;;;28.66;37.78;100482.44;5014476;28;20062;-69
2022/06/25 07:20:12;;;;;;;3.70;2.55;;;;;;;28.75;37.81;100483.41;4998244;28;20034;-69
2022/06/25 07:22:38;;;;;;;4.57;2.60;;;;;;;28.88;37.62;100492.03;5015713;28;20039;-67
2022/06/25 07:25:04;;;;;;;4.32;2.80;;;;;;;29.09;37.10;100480.19;5016079;28;20030;-68
2022/06/25 07:27:30;;;;;;;2.90;2.60;;;;;;;29.20;37.13;100486.25;5016438;28;20042;-68
2022/06/25 07:29:55;;;;;;;4.15;3.20;;;;;;;29.13;37.38;100495.09;5031758;28;20044;-69
2022/06/25 07:32:21;;;;;;;3.03;2.72;;;;;;;29.30;37.09;100490.75;5016490;28;20092;-69
2022/06/25 07:34:47;;;;;;;3.00;2.60;;;;;;;29.43;36.80;100496.63;5015990;28;20042;-69
2022/06/25 07:37:12;;;;;;;4.97;2.97;;;;;;;29.47;36.53;100489.91;5015791;28;20464;-69
2022/06/25 07:39:38;;;;;;;4.97;2.95;;;;;;;29.48;36.56;100494.31;5015661;28;20034;-68
2022/06/25 07:42:04;;;;;;;2.75;2.40;;;;;;;29.50;36.27;100492.31;5015707;28;20037;-68
2022/06/25 07:44:29;;;;;;;8.07;2.80;;;;;;;29.46;36.16;100493.63;5031737;28;20033;-69
2022/06/25 07:46:55;;;;;;;4.88;2.42;;;;;;;29.49;35.93;100485.22;5015673;28;20385;-69
2022/06/25 07:49:20;;;;;;;3.20;2.10;;;;;;;29.50;35.81;100500.44;5015502;28;20037;-69
2022/06/25 07:51:59;;;;;;;3.72;2.42;;;;;;;29.35;36.20;100493.84;5015587;28;20052;-69
2022/06/25 07:54:26;;;;;;;4.00;2.42;;;;;;;29.31;36.08;100501.41;5015680;28;20117;-69
2022/06/25 07:56:52;;;;;;;4.05;2.50;;;;;;;29.35;35.96;100493.84;5015645;28;20088;-68
2022/06/25 07:59:18;;;;;;;4.20;2.70;;;;;;;29.39;35.58;100496.06;5027025;28;20446;-69
2022/06/25 08:01:44;;;;;;;2.30;2.10;;;;;;;29.49;35.53;100498.75;5017408;28;20057;-68
2022/06/25 08:04:09;;;;;;;3.05;2.50;;;;;;;29.54;35.41;100499.13;5035267;28;20473;-69
2022/06/25 08:06:38;;;;;;;3.15;2.50;;;;;;;29.56;35.41;100498.97;5035272;28;20026;-69
2022/06/25 08:09:04;;;;;;;2.58;2.15;;;;;;;29.62;35.20;100499.25;5034902;28;20057;-68
2022/06/25 08:11:30;;;;;;;4.60;2.60;;;;;;;29.75;35.18;100506.13;5034865;28;20124;-68
2022/06/25 08:13:56;;;;;;;3.38;2.40;;;;;;;29.74;34.89;100499.88;5034922;28;20073;-69
2022/06/25 08:16:24;;;;;;;4.28;2.40;;;;;;;29.77;34.63;100504.13;5001003;28;20553;-68
2022/06/25 08:18:51;;;;;;;3.78;2.35;;;;;;;29.57;34.53;100493.44;5017160;28;20465;-69
2022/06/25 08:21:17;;;;;;;3.70;2.38;;;;;;;29.66;34.81;100494.38;5017139;28;20033;-67
2022/06/25 08:23:42;;;;;;;3.33;2.50;;;;;;;29.70;34.34;100493.91;5034634;28;20056;-69
2022/06/25 08:26:08;;;;;;;2.38;2.05;;;;;;;29.85;34.17;100498.78;5034706;28;20030;-69
2022/06/25 08:28:33;;;;;;;3.20;2.65;;;;;;;29.82;34.26;100490.97;5017049;28;20370;-69
2022/06/25 08:30:58;;;;;;;3.50;2.40;;;;;;;29.84;34.03;100497.94;5034744;28;20064;-69
2022/06/25 08:33:24;;;;;;;3.38;2.13;;;;;;;30.00;33.80;100499.06;5034740;28;20033;-71
2022/06/25 08:35:50;;;;;;;2.72;2.20;;;;;;;30.09;33.53;100500.88;5034494;28;20116;-69
2022/06/25 08:38:16;;;;;;;4.13;2.67;;;;;;;30.11;33.47;100496.97;5034387;28;20245;-69
2022/06/25 08:40:42;;;;;;;6.95;2.38;;;;;;;30.11;33.25;100501.53;5017361;28;20029;-69
2022/06/25 08:43:08;;;;;;;2.20;2.00;;;;;;;30.12;33.23;100497.81;5034389;28;20385;-69
2022/06/25 08:45:34;;;;;;;2.42;2.13;;;;;;;30.14;32.94;100491.25;5034495;28;20030;-70
2022/06/25 08:48:01;;;;;;;2.58;2.35;;;;;;;30.22;32.77;100497.78;5034532;28;20458;-69
2022/06/25 08:50:27;;;;;;;2.20;1.92;;;;;;;30.23;32.95;100486.78;5034401;28;20045;-68
2022/06/25 08:52:55;;;;;;;3.55;2.20;;;;;;;30.24;32.60;100490.34;5034092;28;20060;-69
2022/06/25 08:55:36;;;;;;;3.28;2.75;;;;;;;30.33;32.38;100482.13;5017020;28;20509;-69
2022/06/25 08:58:03;;;;;;;3.25;2.30;;;;;;;30.34;32.71;100486.53;5034483;28;20109;-69
2022/06/25 09:00:31;;;;;;;3.25;2.45;;;;;;;30.28;31.99;100486.28;5033998;28;20496;-70
2022/06/25 09:02:57;;;;;;;3.30;1.98;;;;;;;30.28;32.37;100491.72;5034283;28;20037;-68
2022/06/25 09:05:32;;;;;;;2.72;1.80;;;;;;;30.20;30.45;100492.50;5033908;28;20125;-69
2022/06/25 09:08:00;;;;;;;3.63;2.30;;;;;;;30.23;30.90;100494.06;5016379;28;20033;-69
2022/06/25 09:10:29;;;;;;;3.70;1.55;;;;;;;30.22;30.45;100486.94;5016922;28;20060;-69
2022/06/25 09:12:58;;;;;;;2.05;1.70;;;;;;;30.15;30.26;100492.09;5033981;28;20064;-70
2022/06/25 09:15:30;;;;;;;2.45;1.83;;;;;;;30.24;29.44;100485.75;5033963;28;20359;-69
2022/06/25 09:17:56;;;;;;;2.08;1.88;;;;;;;30.32;30.28;100480.44;5034213;28;20095;-70
2022/06/25 09:20:22;;;;;;;3.25;2.00;;;;;;;30.37;30.41;100477.25;5034075;28;20043;-69
2022/06/25 09:22:57;;;;;;;3.00;1.95;;;;;;;30.47;30.32;100464.41;5033065;28;20036;-70
2022/06/25 09:25:24;;;;;;;2.25;1.80;;;;;;;30.58;30.91;100477.69;5033992;28;20485;-70
2022/06/25 09:27:50;;;;;;;4.07;2.22;;;;;;;30.65;30.29;100486.06;5033846;28;20447;-69
2022/06/25 09:30:19;;;;;;;2.67;1.70;;;;;;;30.67;29.82;100471.31;5033705;28;20533;-69
2022/06/25 09:33:02;;;;;;;2.58;1.52;;;;;;;30.65;29.78;100472.50;5033705;28;20033;-69
2022/06/25 09:35:37;;;;;;;2.90;1.88;;;;;;;30.79;30.17;100476.50;5033796;28;20487;-69
2022/06/25 09:38:04;;;;;;;2.63;1.70;;;;;;;30.81;30.39;100488.03;5033839;28;20084;-69
2022/06/25 09:40:30;;;;;;;2.22;1.88;;;;;;;30.84;30.11;100482.25;5033640;28;20041;-70
2022/06/25 09:42:57;;;;;;;2.22;1.30;;;;;;;30.94;30.09;100484.88;5033636;28;20025;-69
2022/06/25 09:45:26;;;;;;;5.30;1.90;;;;;;;30.96;30.16;100491.84;5033764;28;20470;-69
2022/06/25 09:47:54;;;;;;;2.58;1.70;;;;;;;30.87;30.28;100492.81;5033570;28;20033;-69
2022/06/25 09:50:20;;;;;;;2.50;1.85;;;;;;;31.01;30.55;100484.06;5016015;28;20034;-69
2022/06/25 09:52:52;;;;;;;2.03;1.75;;;;;;;30.96;30.12;100491.84;5015589;28;20441;-69
2022/06/25 09:55:20;;;;;;;1.80;1.60;;;;;;;31.00;30.33;100493.22;5015524;28;20116;-70
2022/06/25 09:57:46;;;;;;;2.33;1.80;;;;;;;31.02;30.17;100483.03;5033937;28;20042;-69
2022/06/25 10:00:14;;;;;;;2.30;1.60;;;;;;;31.16;30.47;100493.28;5033538;28;20470;-69
2022/06/25 10:02:42;;;;;;;2.20;2.00;;;;;;;31.14;30.61;100489.88;5033431;28;20069;-69
2022/06/25 10:05:09;;;;;;;2.40;1.95;;;;;;;31.20;30.32;100487.50;4999373;28;20481;-69
2022/06/25 10:10:22;;;;;;;2.50;1.65;;;;;;;31.27;30.27;100492.13;5033628;28;20064;-70
2022/06/25 10:12:49;;;;;;;2.67;1.63;;;;;;;31.27;30.15;100489.41;5033348;28;20061;-69
2022/06/25 10:15:17;;;;;;;2.35;1.50;;;;;;;31.34;30.22;100495.06;5033292;28;20358;-70
2022/06/25 10:17:47;;;;;;;3.83;2.00;;;;;;;31.32;30.40;100495.25;5016017;28;20040;-70
2022/06/25 10:20:15;;;;;;;2.17;1.80;;;;;;;31.35;30.24;100492.16;5015649;28;20041;-69
2022/06/25 10:22:41;;;;;;;2.53;1.70;;;;;;;31.27;30.14;100497.53;5015629;28;20056;-69
2022/06/25 10:25:12;;;;;;;3.90;1.88;;;;;;;31.32;30.08;100483.50;5033224;28;20456;-69
2022/06/25 10:27:43;;;;;;;3.95;1.92;;;;;;;31.33;29.95;100485.22;4999769;28;20124;-69
2022/06/25 10:30:10;;;;;;;2.35;1.60;;;;;;;31.42;30.11;100483.38;5033175;28;20038;-69
2022/06/25 10:32:43;;;;;;;2.47;1.90;;;;;;;31.54;29.81;100480.19;5033050;28;20087;-69
2022/06/25 10:35:09;;;;;;;1.85;1.73;;;;;;;31.49;30.42;100477.13;5036880;28;20029;-70
2022/06/25 10:37:59;;;;;;;3.03;1.80;;;;;;;31.55;29.99;100479.16;5019309;28;20132;-69
2022/06/25 10:40:24;;;;;;;2.33;2.10;;;;;;;31.53;30.23;100475.78;5037124;28;20092;-69
2022/06/25 10:42:59;;;;;;;2.22;1.92;;;;;;;31.59;30.34;100475.09;5019162;28;20029;-69
2022/06/25 10:45:24;;;;;;;2.00;1.80;;;;;;;31.68;30.30;100469.66;5020546;28;20034;-69
2022/06/25 10:47:54;;;;;;;2.80;2.13;;;;;;;31.63;29.97;100484.59;5036568;28;20095;-69
2022/06/25 10:50:22;;;;;;;3.75;2.20;;;;;;;31.64;29.82;100480.03;5036905;28;20256;-69
2022/06/25 10:53:06;;;;;;;4.20;1.98;;;;;;;31.56;30.11;100478.16;5036471;28;20060;-70
2022/06/25 10:55:46;;;;;;;2.95;2.00;;;;;;;31.59;29.90;100483.22;5018821;28;20036;-70
2022/06/25 10:58:23;;;;;;;2.10;1.90;;;;;;;31.64;30.13;100475.47;5036494;28;20061;-69
2022/06/25 11:00:49;;;;;;;1.98;1.77;;;;;;;31.71;30.22;100466.63;5036529;28;20033;-70
2022/06/25 11:03:16;;;;;;;2.40;2.00;;;;;;;31.77;30.38;100453.22;5018630;28;20076;-69
2022/06/25 11:05:45;;;;;;;2.95;1.90;;;;;;;31.86;30.51;100448.69;5036508;28;20037;-70
2022/06/25 11:08:10;;;;;;;2.13;1.70;;;;;;;31.92;30.49;100464.31;5018772;28;20033;-69
2022/06/25 11:10:37;;;;;;;3.30;2.22;;;;;;;31.92;30.23;100458.00;5018415;28;20055;-69
2022/06/25 11:13:03;;;;;;;2.28;2.03;;;;;;;31.86;30.78;100470.41;5018936;28;20025;-70
2022/06/25 11:15:44;;;;;;;2.45;2.17;;;;;;;31.86;30.35;100462.25;5036273;28;20461;-71
2022/06/25 11:18:12;;;;;;;2.72;2.05;;;;;;;31.79;30.77;100461.19;5036382;28;20026;-70
2022/06/25 11:20:38;;;;;;;2.00;1.80;;;;;;;31.88;30.68;100465.66;5036053;28;20044;-70
2022/06/25 11:23:04;;;;;;;4.22;2.08;;;;;;;32.00;30.59;100464.31;5018510;28;20087;-69
2022/06/25 11:28:49;;;;;;;2.67;1.73;;;;;;;32.11;30.53;100458.50;5036046;28;20056;-70
2022/06/25 11:31:16;;;;;;;2.10;1.65;;;;;;;32.23;30.25;100474.47;5018908;28;20102;-69
2022/06/25 11:33:44;;;;;;;2.22;1.88;;;;;;;32.31;29.57;100463.59;5035976;28;20029;-70
2022/06/25 11:36:11;;;;;;;3.50;1.63;;;;;;;32.45;30.16;100468.34;5018100;28;20366;-70
2022/06/25 11:38:36;;;;;;;2.35;1.85;;;;;;;32.39;29.69;100469.03;5035920;28;20036;-70